sensor_id;sensor_type;location;lat;lon;timestamp;pressure;altitude;pressure_sealevel;temperature;humidity
34506;BME280;20748;42.632;23.198;2022-09-09T00:01:20;92325.66;;;16.76;87.91
34506;BME280;20748;42.632;23.198;2022-09-09T00:03:59;92322.16;;;16.72;88.30
34506;BME280;20748;42.632;23.198;2022-09-09T00:06:43;92320.94;;;16.70;88.51
34506;BME280;20748;42.632;23.198;2022-09-09T00:09:19;92317.97;;;16.71;88.62
34506;BME280;20748;42.632;23.198;2022-09-09T00:11:56;92326.75;;;16.75;88.41
34506;BME280;20748;42.632;23.198;2022-09-09T00:14:37;92318.84;;;16.75;87.77
34506;BME280;20748;42.632;23.198;2022-09-09T00:17:25;92313.47;;;16.72;88.05
34506;BME280;20748;42.632;23.198;2022-09-09T00:20:04;92307.31;;;16.68;88.29
34506;BME280;20748;42.632;23.198;2022-09-09T00:22:47;92299.09;;;16.57;88.85
34506;BME280;20748;42.632;23.198;2022-09-09T00:25:28;92284.59;;;16.50;89.25
34506;BME280;20748;42.632;23.198;2022-09-09T00:28:10;92280.53;;;16.53;89.40
34506;BME280;20748;42.632;23.198;2022-09-09T00:30:46;92278.13;;;16.48;89.17
34506;BME280;20748;42.632;23.198;2022-09-09T00:33:22;92272.28;;;16.42;89.00
34506;BME280;20748;42.632;23.198;2022-09-09T00:35:57;92268.13;;;16.41;89.46
34506;BME280;20748;42.632;23.198;2022-09-09T00:38:33;92269.31;;;16.31;89.33
34506;BME280;20748;42.632;23.198;2022-09-09T00:41:11;92280.16;;;16.30;89.11
34506;BME280;20748;42.632;23.198;2022-09-09T00:43:46;92273.34;;;16.16;89.86
34506;BME280;20748;42.632;23.198;2022-09-09T00:46:56;92268.47;;;16.06;90.71
34506;BME280;20748;42.632;23.198;2022-09-09T00:49:39;92271.44;;;16.04;91.00
34506;BME280;20748;42.632;23.198;2022-09-09T00:52:26;92273.44;;;16.07;90.90
34506;BME280;20748;42.632;23.198;2022-09-09T00:55:07;92281.00;;;16.09;90.97
34506;BME280;20748;42.632;23.198;2022-09-09T00:57:43;92278.00;;;15.98;91.13
34506;BME280;20748;42.632;23.198;2022-09-09T01:00:21;92277.94;;;15.86;91.79
34506;BME280;20748;42.632;23.198;2022-09-09T01:03:06;92278.19;;;15.71;92.49
34506;BME280;20748;42.632;23.198;2022-09-09T01:05:46;92277.19;;;15.85;92.51
34506;BME280;20748;42.632;23.198;2022-09-09T01:11:20;92282.44;;;15.85;92.23
34506;BME280;20748;42.632;23.198;2022-09-09T01:13:55;92282.44;;;15.85;92.28
34506;BME280;20748;42.632;23.198;2022-09-09T01:16:32;92289.81;;;15.70;92.27
34506;BME280;20748;42.632;23.198;2022-09-09T01:19:08;92294.75;;;15.72;92.47
34506;BME280;20748;42.632;23.198;2022-09-09T01:21:48;92287.66;;;15.73;92.30
34506;BME280;20748;42.632;23.198;2022-09-09T01:24:27;92283.94;;;15.74;92.45
34506;BME280;20748;42.632;23.198;2022-09-09T01:27:34;92282.06;;;15.74;91.96
34506;BME280;20748;42.632;23.198;2022-09-09T01:30:10;92285.47;;;15.75;92.11
34506;BME280;20748;42.632;23.198;2022-09-09T01:32:44;92281.28;;;15.74;92.20
34506;BME280;20748;42.632;23.198;2022-09-09T01:35:29;92273.09;;;15.75;91.73
34506;BME280;20748;42.632;23.198;2022-09-09T01:38:06;92289.31;;;15.77;91.07
34506;BME280;20748;42.632;23.198;2022-09-09T01:40:39;92278.78;;;15.77;90.65
34506;BME280;20748;42.632;23.198;2022-09-09T01:43:12;92284.56;;;15.70;91.75
34506;BME280;20748;42.632;23.198;2022-09-09T01:45:46;92283.22;;;15.64;91.79
34506;BME280;20748;42.632;23.198;2022-09-09T01:48:22;92268.22;;;15.65;92.41
34506;BME280;20748;42.632;23.198;2022-09-09T01:51:07;92281.72;;;15.76;92.96
34506;BME280;20748;42.632;23.198;2022-09-09T01:53:41;92285.59;;;15.57;92.56
34506;BME280;20748;42.632;23.198;2022-09-09T01:56:28;92282.06;;;15.53;92.87
34506;BME280;20748;42.632;23.198;2022-09-09T01:59:07;92273.69;;;15.60;92.23
34506;BME280;20748;42.632;23.198;2022-09-09T02:01:55;92279.69;;;15.39;92.45
34506;BME280;20748;42.632;23.198;2022-09-09T02:04:37;92284.63;;;15.40;92.49
34506;BME280;20748;42.632;23.198;2022-09-09T02:07:30;92283.16;;;15.30;93.01
34506;BME280;20748;42.632;23.198;2022-09-09T02:10:10;92287.16;;;15.37;93.68
34506;BME280;20748;42.632;23.198;2022-09-09T02:12:49;92280.97;;;15.33;93.68
34506;BME280;20748;42.632;23.198;2022-09-09T02:15:28;92280.91;;;15.41;93.20
34506;BME280;20748;42.632;23.198;2022-09-09T02:18:04;92278.94;;;15.38;93.61
34506;BME280;20748;42.632;23.198;2022-09-09T02:20:42;92259.69;;;15.25;94.11
34506;BME280;20748;42.632;23.198;2022-09-09T02:23:15;92281.38;;;15.43;93.26
34506;BME280;20748;42.632;23.198;2022-09-09T02:25:53;92280.47;;;15.39;93.21
34506;BME280;20748;42.632;23.198;2022-09-09T02:28:30;92288.06;;;15.41;93.33
34506;BME280;20748;42.632;23.198;2022-09-09T02:31:05;92285.41;;;15.41;93.48
34506;BME280;20748;42.632;23.198;2022-09-09T02:33:45;92285.63;;;15.36;93.20
34506;BME280;20748;42.632;23.198;2022-09-09T02:36:20;92292.72;;;15.35;93.37
34506;BME280;20748;42.632;23.198;2022-09-09T02:38:56;92297.41;;;15.29;93.50
34506;BME280;20748;42.632;23.198;2022-09-09T02:41:34;92299.72;;;15.31;93.89
34506;BME280;20748;42.632;23.198;2022-09-09T02:44:10;92303.22;;;15.35;93.51
34506;BME280;20748;42.632;23.198;2022-09-09T02:47:04;92297.66;;;15.37;93.71
34506;BME280;20748;42.632;23.198;2022-09-09T02:49:43;92301.63;;;15.43;93.49
34506;BME280;20748;42.632;23.198;2022-09-09T02:52:29;92299.06;;;15.34;93.25
34506;BME280;20748;42.632;23.198;2022-09-09T02:55:11;92315.34;;;15.27;93.50
34506;BME280;20748;42.632;23.198;2022-09-09T02:57:47;92301.44;;;15.27;93.30
34506;BME280;20748;42.632;23.198;2022-09-09T03:00:24;92305.59;;;15.28;93.62
34506;BME280;20748;42.632;23.198;2022-09-09T03:02:58;92297.28;;;15.26;93.04
34506;BME280;20748;42.632;23.198;2022-09-09T03:05:31;92304.06;;;15.27;92.94
34506;BME280;20748;42.632;23.198;2022-09-09T03:08:04;92297.72;;;15.28;93.51
34506;BME280;20748;42.632;23.198;2022-09-09T03:10:37;92297.41;;;15.29;93.58
34506;BME280;20748;42.632;23.198;2022-09-09T03:13:10;92300.84;;;15.21;94.16
34506;BME280;20748;42.632;23.198;2022-09-09T03:15:44;92299.78;;;15.22;93.98
34506;BME280;20748;42.632;23.198;2022-09-09T03:18:21;92297.91;;;15.23;93.62
34506;BME280;20748;42.632;23.198;2022-09-09T03:20:57;92292.66;;;15.23;93.74
34506;BME280;20748;42.632;23.198;2022-09-09T03:23:31;92297.00;;;15.19;93.64
34506;BME280;20748;42.632;23.198;2022-09-09T03:26:07;92298.09;;;15.17;93.91
34506;BME280;20748;42.632;23.198;2022-09-09T03:28:45;92291.75;;;15.19;93.74
34506;BME280;20748;42.632;23.198;2022-09-09T03:31:22;92285.28;;;15.16;94.10
34506;BME280;20748;42.632;23.198;2022-09-09T03:33:56;92287.06;;;15.03;95.05
34506;BME280;20748;42.632;23.198;2022-09-09T03:36:31;92285.38;;;14.98;95.35
34506;BME280;20748;42.632;23.198;2022-09-09T03:39:04;92290.19;;;14.96;96.69
34506;BME280;20748;42.632;23.198;2022-09-09T03:41:37;92282.25;;;14.75;98.04
34506;BME280;20748;42.632;23.198;2022-09-09T03:44:11;92288.88;;;14.81;98.02
34506;BME280;20748;42.632;23.198;2022-09-09T03:46:46;92287.78;;;14.82;97.77
34506;BME280;20748;42.632;23.198;2022-09-09T03:49:19;92296.31;;;14.79;97.58
34506;BME280;20748;42.632;23.198;2022-09-09T03:51:52;92292.28;;;14.82;97.65
34506;BME280;20748;42.632;23.198;2022-09-09T03:54:25;92289.97;;;14.71;98.29
34506;BME280;20748;42.632;23.198;2022-09-09T03:56:57;92282.06;;;14.80;98.35
34506;BME280;20748;42.632;23.198;2022-09-09T03:59:30;92293.66;;;14.79;98.61
34506;BME280;20748;42.632;23.198;2022-09-09T04:02:03;92290.41;;;14.82;98.73
34506;BME280;20748;42.632;23.198;2022-09-09T04:04:36;92286.84;;;14.87;99.30
34506;BME280;20748;42.632;23.198;2022-09-09T04:07:09;92293.75;;;14.92;98.98
34506;BME280;20748;42.632;23.198;2022-09-09T04:09:41;92291.13;;;14.92;98.86
34506;BME280;20748;42.632;23.198;2022-09-09T04:12:14;92284.59;;;14.98;98.68
34506;BME280;20748;42.632;23.198;2022-09-09T04:14:46;92284.75;;;15.01;98.12
34506;BME280;20748;42.632;23.198;2022-09-09T04:17:19;92288.28;;;15.06;97.79
34506;BME280;20748;42.632;23.198;2022-09-09T04:19:52;92281.16;;;15.06;97.70
34506;BME280;20748;42.632;23.198;2022-09-09T04:22:24;92270.19;;;15.04;97.94
34506;BME280;20748;42.632;23.198;2022-09-09T04:24:57;92283.03;;;15.06;98.46
34506;BME280;20748;42.632;23.198;2022-09-09T04:27:30;92285.19;;;15.03;98.06
34506;BME280;20748;42.632;23.198;2022-09-09T04:30:03;92286.09;;;15.08;98.31
34506;BME280;20748;42.632;23.198;2022-09-09T04:32:37;92280.09;;;15.07;98.08
34506;BME280;20748;42.632;23.198;2022-09-09T04:35:10;92284.75;;;15.01;97.94
34506;BME280;20748;42.632;23.198;2022-09-09T04:37:42;92294.16;;;15.02;98.46
34506;BME280;20748;42.632;23.198;2022-09-09T04:40:16;92299.66;;;15.10;98.15
34506;BME280;20748;42.632;23.198;2022-09-09T04:42:48;92300.44;;;15.10;97.90
34506;BME280;20748;42.632;23.198;2022-09-09T04:45:21;92293.53;;;15.06;98.37
34506;BME280;20748;42.632;23.198;2022-09-09T04:47:54;92287.31;;;15.10;98.35
34506;BME280;20748;42.632;23.198;2022-09-09T04:50:27;92289.56;;;15.21;98.75
34506;BME280;20748;42.632;23.198;2022-09-09T04:53:04;92293.56;;;15.27;98.86
34506;BME280;20748;42.632;23.198;2022-09-09T04:55:37;92297.28;;;15.26;99.26
34506;BME280;20748;42.632;23.198;2022-09-09T04:58:10;92290.63;;;15.28;98.06
34506;BME280;20748;42.632;23.198;2022-09-09T05:00:43;92289.22;;;15.31;97.86
34506;BME280;20748;42.632;23.198;2022-09-09T05:03:16;92283.41;;;15.38;98.16
34506;BME280;20748;42.632;23.198;2022-09-09T05:05:49;92264.06;;;15.42;97.59
34506;BME280;20748;42.632;23.198;2022-09-09T05:08:22;92266.81;;;15.46;97.58
34506;BME280;20748;42.632;23.198;2022-09-09T05:10:54;92265.53;;;15.52;97.98
34506;BME280;20748;42.632;23.198;2022-09-09T05:13:26;92267.97;;;15.57;98.11
34506;BME280;20748;42.632;23.198;2022-09-09T05:15:59;92270.72;;;15.61;98.12
34506;BME280;20748;42.632;23.198;2022-09-09T05:18:32;92260.56;;;15.72;97.48
34506;BME280;20748;42.632;23.198;2022-09-09T05:21:05;92250.41;;;15.83;97.43
34506;BME280;20748;42.632;23.198;2022-09-09T05:23:38;92249.47;;;15.88;97.55
34506;BME280;20748;42.632;23.198;2022-09-09T05:26:13;92258.56;;;15.90;98.29
34506;BME280;20748;42.632;23.198;2022-09-09T05:28:50;92252.09;;;15.88;98.58
34506;BME280;20748;42.632;23.198;2022-09-09T05:31:23;92260.78;;;16.01;98.86
34506;BME280;20748;42.632;23.198;2022-09-09T05:33:58;92263.78;;;16.12;98.58
34506;BME280;20748;42.632;23.198;2022-09-09T05:36:31;92258.06;;;16.09;98.62
34506;BME280;20748;42.632;23.198;2022-09-09T05:39:04;92262.81;;;16.16;99.12
34506;BME280;20748;42.632;23.198;2022-09-09T05:41:38;92264.47;;;16.21;99.26
34506;BME280;20748;42.632;23.198;2022-09-09T05:44:10;92269.53;;;16.38;98.39
34506;BME280;20748;42.632;23.198;2022-09-09T05:46:44;92278.34;;;16.55;98.63
34506;BME280;20748;42.632;23.198;2022-09-09T05:49:18;92284.91;;;16.61;96.51
34506;BME280;20748;42.632;23.198;2022-09-09T05:51:51;92277.69;;;16.83;95.76
34506;BME280;20748;42.632;23.198;2022-09-09T05:54:24;92273.19;;;16.96;95.39
34506;BME280;20748;42.632;23.198;2022-09-09T05:56:59;92278.03;;;17.07;94.84
34506;BME280;20748;42.632;23.198;2022-09-09T05:59:31;92280.09;;;17.26;93.53
34506;BME280;20748;42.632;23.198;2022-09-09T06:02:05;92287.34;;;17.29;93.32
34506;BME280;20748;42.632;23.198;2022-09-09T06:04:40;92283.47;;;17.39;92.50
34506;BME280;20748;42.632;23.198;2022-09-09T06:07:14;92293.69;;;17.40;91.45
34506;BME280;20748;42.632;23.198;2022-09-09T06:09:46;92289.94;;;17.54;91.36
34506;BME280;20748;42.632;23.198;2022-09-09T06:12:19;92300.09;;;17.68;91.20
34506;BME280;20748;42.632;23.198;2022-09-09T06:14:52;92293.00;;;17.84;90.47
34506;BME280;20748;42.632;23.198;2022-09-09T06:17:24;92297.88;;;17.98;89.98
34506;BME280;20748;42.632;23.198;2022-09-09T06:19:57;92291.25;;;18.05;89.08
34506;BME280;20748;42.632;23.198;2022-09-09T06:22:30;92287.22;;;18.07;88.22
34506;BME280;20748;42.632;23.198;2022-09-09T06:25:03;92293.44;;;18.15;87.95
34506;BME280;20748;42.632;23.198;2022-09-09T06:27:36;92294.66;;;18.34;87.37
34506;BME280;20748;42.632;23.198;2022-09-09T06:30:10;92284.13;;;18.50;87.38
34506;BME280;20748;42.632;23.198;2022-09-09T06:32:42;92280.53;;;18.74;84.80
34506;BME280;20748;42.632;23.198;2022-09-09T06:35:15;92277.47;;;18.88;84.56
34506;BME280;20748;42.632;23.198;2022-09-09T06:37:48;92268.06;;;19.07;84.43
34506;BME280;20748;42.632;23.198;2022-09-09T06:40:22;92274.50;;;19.26;82.10
34506;BME280;20748;42.632;23.198;2022-09-09T06:42:59;92277.41;;;19.37;81.50
34506;BME280;20748;42.632;23.198;2022-09-09T06:45:43;92280.91;;;19.61;80.92
34506;BME280;20748;42.632;23.198;2022-09-09T06:48:17;92285.72;;;19.75;80.66
34506;BME280;20748;42.632;23.198;2022-09-09T06:50:49;92291.63;;;19.88;80.21
34506;BME280;20748;42.632;23.198;2022-09-09T06:53:22;92295.72;;;19.85;79.84
34506;BME280;20748;42.632;23.198;2022-09-09T06:55:55;92298.47;;;20.08;79.74
34506;BME280;20748;42.632;23.198;2022-09-09T06:58:28;92306.16;;;20.14;78.01
34506;BME280;20748;42.632;23.198;2022-09-09T07:01:03;92307.84;;;20.25;77.11
34506;BME280;20748;42.632;23.198;2022-09-09T07:03:37;92308.09;;;20.17;78.40
34506;BME280;20748;42.632;23.198;2022-09-09T07:06:14;92308.19;;;20.44;77.77
34506;BME280;20748;42.632;23.198;2022-09-09T07:08:50;92309.41;;;20.73;77.24
34506;BME280;20748;42.632;23.198;2022-09-09T07:11:33;92307.25;;;21.02;73.34
34506;BME280;20748;42.632;23.198;2022-09-09T07:14:05;92302.22;;;21.21;72.54
34506;BME280;20748;42.632;23.198;2022-09-09T07:16:39;92305.84;;;21.36;72.50
34506;BME280;20748;42.632;23.198;2022-09-09T07:19:12;92302.00;;;21.60;72.53
34506;BME280;20748;42.632;23.198;2022-09-09T07:21:47;92300.31;;;21.75;71.62
34506;BME280;20748;42.632;23.198;2022-09-09T07:24:23;92298.69;;;22.01;68.79
34506;BME280;20748;42.632;23.198;2022-09-09T07:26:56;92296.63;;;22.21;66.27
34506;BME280;20748;42.632;23.198;2022-09-09T07:29:29;92283.59;;;22.47;67.39
34506;BME280;20748;42.632;23.198;2022-09-09T07:32:02;92282.56;;;22.55;63.28
34506;BME280;20748;42.632;23.198;2022-09-09T07:34:40;92287.28;;;22.76;63.32
34506;BME280;20748;42.632;23.198;2022-09-09T07:37:12;92293.13;;;22.93;61.55
34506;BME280;20748;42.632;23.198;2022-09-09T07:39:48;92300.50;;;23.14;60.16
34506;BME280;20748;42.632;23.198;2022-09-09T07:42:22;92300.66;;;23.32;58.95
34506;BME280;20748;42.632;23.198;2022-09-09T07:44:55;92304.91;;;23.48;57.82
34506;BME280;20748;42.632;23.198;2022-09-09T07:47:27;92300.81;;;23.62;58.02
34506;BME280;20748;42.632;23.198;2022-09-09T07:50:00;92301.59;;;23.69;56.61
34506;BME280;20748;42.632;23.198;2022-09-09T07:52:36;92291.03;;;23.95;55.62
34506;BME280;20748;42.632;23.198;2022-09-09T07:55:11;92296.44;;;24.06;55.48
34506;BME280;20748;42.632;23.198;2022-09-09T07:57:44;92294.50;;;24.06;55.34
34506;BME280;20748;42.632;23.198;2022-09-09T08:00:16;92294.25;;;24.40;54.66
34506;BME280;20748;42.632;23.198;2022-09-09T08:02:55;92293.50;;;24.47;53.53
34506;BME280;20748;42.632;23.198;2022-09-09T08:05:27;92298.84;;;24.65;54.61
34506;BME280;20748;42.632;23.198;2022-09-09T08:08:00;92298.88;;;24.76;53.40
34506;BME280;20748;42.632;23.198;2022-09-09T08:10:35;92299.69;;;24.91;51.80
34506;BME280;20748;42.632;23.198;2022-09-09T08:13:09;92296.22;;;25.05;51.58
34506;BME280;20748;42.632;23.198;2022-09-09T08:15:50;92297.38;;;24.97;51.84
34506;BME280;20748;42.632;23.198;2022-09-09T08:18:23;92300.03;;;25.01;53.35
34506;BME280;20748;42.632;23.198;2022-09-09T08:20:56;92307.31;;;25.00;52.37
34506;BME280;20748;42.632;23.198;2022-09-09T08:23:29;92301.56;;;24.98;51.22
34506;BME280;20748;42.632;23.198;2022-09-09T08:26:11;92298.50;;;25.07;50.09
34506;BME280;20748;42.632;23.198;2022-09-09T08:28:43;92285.91;;;25.18;50.40
34506;BME280;20748;42.632;23.198;2022-09-09T08:31:18;92298.13;;;25.19;51.46
34506;BME280;20748;42.632;23.198;2022-09-09T08:33:51;92296.59;;;25.18;50.90
34506;BME280;20748;42.632;23.198;2022-09-09T08:36:27;92302.31;;;25.24;51.31
34506;BME280;20748;42.632;23.198;2022-09-09T08:39:00;92310.31;;;25.39;50.37
34506;BME280;20748;42.632;23.198;2022-09-09T08:41:50;92305.00;;;25.20;51.04
34506;BME280;20748;42.632;23.198;2022-09-09T08:44:35;92301.19;;;25.00;51.29
34506;BME280;20748;42.632;23.198;2022-09-09T08:47:15;92305.38;;;25.26;51.69
34506;BME280;20748;42.632;23.198;2022-09-09T08:50:05;92303.44;;;25.38;52.40
34506;BME280;20748;42.632;23.198;2022-09-09T08:52:50;92298.88;;;25.27;52.34
34506;BME280;20748;42.632;23.198;2022-09-09T08:55:35;92293.53;;;25.27;52.41
34506;BME280;20748;42.632;23.198;2022-09-09T08:58:13;92290.84;;;25.34;52.08
34506;BME280;20748;42.632;23.198;2022-09-09T09:04:11;92292.72;;;25.67;50.65
34506;BME280;20748;42.632;23.198;2022-09-09T09:06:54;92295.78;;;25.65;51.62
34506;BME280;20748;42.632;23.198;2022-09-09T09:09:37;92302.63;;;25.77;51.98
34506;BME280;20748;42.632;23.198;2022-09-09T09:12:16;92303.72;;;25.87;50.01
34506;BME280;20748;42.632;23.198;2022-09-09T09:14:51;92299.19;;;25.73;49.93
34506;BME280;20748;42.632;23.198;2022-09-09T09:17:26;92304.53;;;25.77;50.96
34506;BME280;20748;42.632;23.198;2022-09-09T09:20:03;92307.09;;;26.02;50.00
34506;BME280;20748;42.632;23.198;2022-09-09T09:22:44;92303.63;;;26.16;49.99
34506;BME280;20748;42.632;23.198;2022-09-09T09:25:22;92300.50;;;26.32;49.11
34506;BME280;20748;42.632;23.198;2022-09-09T09:27:58;92311.66;;;26.12;48.34
34506;BME280;20748;42.632;23.198;2022-09-09T09:30:38;92299.72;;;26.32;47.93
34506;BME280;20748;42.632;23.198;2022-09-09T09:33:18;92304.00;;;26.14;48.38
34506;BME280;20748;42.632;23.198;2022-09-09T09:35:53;92300.56;;;26.10;48.94
34506;BME280;20748;42.632;23.198;2022-09-09T09:38:28;92292.50;;;26.18;50.17
34506;BME280;20748;42.632;23.198;2022-09-09T09:41:31;92295.19;;;26.18;49.47
34506;BME280;20748;42.632;23.198;2022-09-09T09:44:05;92288.25;;;26.38;49.80
34506;BME280;20748;42.632;23.198;2022-09-09T09:46:40;92288.25;;;26.35;49.23
34506;BME280;20748;42.632;23.198;2022-09-09T09:49:16;92289.00;;;26.39;49.87
34506;BME280;20748;42.632;23.198;2022-09-09T09:51:49;92289.31;;;26.48;49.00
34506;BME280;20748;42.632;23.198;2022-09-09T09:54:27;92296.13;;;26.64;49.24
34506;BME280;20748;42.632;23.198;2022-09-09T09:57:09;92281.84;;;26.81;48.68
34506;BME280;20748;42.632;23.198;2022-09-09T09:59:42;92293.00;;;26.73;48.73
34506;BME280;20748;42.632;23.198;2022-09-09T10:02:25;92282.66;;;26.75;47.97
34506;BME280;20748;42.632;23.198;2022-09-09T10:05:12;92296.38;;;26.80;47.67
34506;BME280;20748;42.632;23.198;2022-09-09T10:08:00;92294.06;;;26.83;47.70
34506;BME280;20748;42.632;23.198;2022-09-09T10:10:40;92310.22;;;26.72;48.07
34506;BME280;20748;42.632;23.198;2022-09-09T10:13:25;92317.06;;;26.73;48.89
34506;BME280;20748;42.632;23.198;2022-09-09T10:16:09;92314.47;;;26.65;48.86
34506;BME280;20748;42.632;23.198;2022-09-09T10:18:58;92309.91;;;26.59;48.73
34506;BME280;20748;42.632;23.198;2022-09-09T10:21:47;92309.97;;;26.48;49.18
34506;BME280;20748;42.632;23.198;2022-09-09T10:24:39;92312.28;;;26.42;50.18
34506;BME280;20748;42.632;23.198;2022-09-09T10:27:20;92312.28;;;26.42;49.63
34506;BME280;20748;42.632;23.198;2022-09-09T10:30:02;92312.28;;;26.42;50.19
34506;BME280;20748;42.632;23.198;2022-09-09T10:32:48;92314.22;;;26.38;49.87
34506;BME280;20748;42.632;23.198;2022-09-09T10:35:29;92326.84;;;26.34;50.70
34506;BME280;20748;42.632;23.198;2022-09-09T10:38:16;92320.41;;;26.24;50.87
34506;BME280;20748;42.632;23.198;2022-09-09T10:41:09;92324.38;;;25.72;52.18
34506;BME280;20748;42.632;23.198;2022-09-09T10:44:06;92316.69;;;25.85;53.22
34506;BME280;20748;42.632;23.198;2022-09-09T10:46:55;92319.88;;;25.18;53.58
34506;BME280;20748;42.632;23.198;2022-09-09T10:49:47;92325.19;;;25.29;54.33
34506;BME280;20748;42.632;23.198;2022-09-09T10:52:30;92322.88;;;25.34;54.68
34506;BME280;20748;42.632;23.198;2022-09-09T10:55:10;92319.84;;;25.32;53.79
34506;BME280;20748;42.632;23.198;2022-09-09T10:57:46;92319.09;;;25.14;55.11
34506;BME280;20748;42.632;23.198;2022-09-09T11:00:22;92318.72;;;25.01;55.58
34506;BME280;20748;42.632;23.198;2022-09-09T11:02:56;92330.91;;;24.94;56.43
34506;BME280;20748;42.632;23.198;2022-09-09T11:05:31;92327.13;;;25.10;55.58
34506;BME280;20748;42.632;23.198;2022-09-09T11:08:12;92325.91;;;24.60;56.16
34506;BME280;20748;42.632;23.198;2022-09-09T11:10:53;92322.78;;;24.29;57.00
34506;BME280;20748;42.632;23.198;2022-09-09T11:13:35;92308.69;;;24.29;58.21
34506;BME280;20748;42.632;23.198;2022-09-09T11:16:17;92312.47;;;24.13;58.47
34506;BME280;20748;42.632;23.198;2022-09-09T11:18:55;92309.81;;;24.24;58.45
34506;BME280;20748;42.632;23.198;2022-09-09T11:21:33;92298.03;;;24.29;58.88
34506;BME280;20748;42.632;23.198;2022-09-09T11:24:11;92290.78;;;24.18;59.21
34506;BME280;20748;42.632;23.198;2022-09-09T11:26:50;92291.53;;;24.15;59.53
34506;BME280;20748;42.632;23.198;2022-09-09T11:33:34;92277.47;;;24.25;60.21
34506;BME280;20748;42.632;23.198;2022-09-09T11:36:26;92274.78;;;24.22;61.06
34506;BME280;20748;42.632;23.198;2022-09-09T11:39:24;92273.97;;;24.07;61.57
34506;BME280;20748;42.632;23.198;2022-09-09T11:42:06;92234.81;;;24.29;61.29
34506;BME280;20748;42.632;23.198;2022-09-09T11:44:41;92225.69;;;24.48;60.24
34506;BME280;20748;42.632;23.198;2022-09-09T11:47:23;92224.56;;;24.38;59.64
34506;BME280;20748;42.632;23.198;2022-09-09T11:50:10;92235.22;;;24.75;60.39
34506;BME280;20748;42.632;23.198;2022-09-09T11:53:18;92240.56;;;24.57;60.49
34506;BME280;20748;42.632;23.198;2022-09-09T11:56:07;92244.38;;;24.56;58.62
34506;BME280;20748;42.632;23.198;2022-09-09T11:58:43;92246.66;;;24.79;59.38
34506;BME280;20748;42.632;23.198;2022-09-09T12:01:36;92235.59;;;24.44;57.14
34506;BME280;20748;42.632;23.198;2022-09-09T12:07:24;92232.16;;;24.73;57.15
34506;BME280;20748;42.632;23.198;2022-09-09T12:10:03;92226.09;;;24.69;58.32
34506;BME280;20748;42.632;23.198;2022-09-09T12:12:38;92222.66;;;24.61;57.17
34506;BME280;20748;42.632;23.198;2022-09-09T12:15:25;92232.94;;;24.77;57.96
34506;BME280;20748;42.632;23.198;2022-09-09T12:17:59;92232.19;;;24.76;57.18
34506;BME280;20748;42.632;23.198;2022-09-09T12:20:36;92224.94;;;24.84;57.84
34506;BME280;20748;42.632;23.198;2022-09-09T12:23:30;92219.97;;;24.72;57.14
34506;BME280;20748;42.632;23.198;2022-09-09T12:26:24;92215.41;;;24.50;56.97
34506;BME280;20748;42.632;23.198;2022-09-09T12:29:09;92214.63;;;24.32;56.63
34506;BME280;20748;42.632;23.198;2022-09-09T12:31:48;92211.97;;;24.32;55.72
34506;BME280;20748;42.632;23.198;2022-09-09T12:34:35;92215.03;;;24.41;55.72
34506;BME280;20748;42.632;23.198;2022-09-09T12:37:15;92216.06;;;24.00;57.01
34506;BME280;20748;42.632;23.198;2022-09-09T12:39:53;92215.72;;;24.02;58.18
34506;BME280;20748;42.632;23.198;2022-09-09T12:42:27;92207.72;;;23.98;59.59
34506;BME280;20748;42.632;23.198;2022-09-09T12:45:02;92212.94;;;23.65;60.05
34506;BME280;20748;42.632;23.198;2022-09-09T12:47:40;92206.16;;;23.90;60.90
34506;BME280;20748;42.632;23.198;2022-09-09T12:50:17;92204.69;;;23.99;60.94
34506;BME280;20748;42.632;23.198;2022-09-09T12:52:52;92193.25;;;23.95;63.92
34506;BME280;20748;42.632;23.198;2022-09-09T12:55:28;92194.75;;;23.93;62.53
34506;BME280;20748;42.632;23.198;2022-09-09T12:58:03;92186.84;;;24.15;62.89
34506;BME280;20748;42.632;23.198;2022-09-09T13:00:49;92178.44;;;24.09;60.56
34506;BME280;20748;42.632;23.198;2022-09-09T13:03:24;92189.06;;;23.94;60.85
34506;BME280;20748;42.632;23.198;2022-09-09T13:05:58;92186.78;;;24.00;61.61
34506;BME280;20748;42.632;23.198;2022-09-09T13:08:31;92178.78;;;23.96;61.68
34506;BME280;20748;42.632;23.198;2022-09-09T13:11:07;92181.38;;;23.67;61.47
34506;BME280;20748;42.632;23.198;2022-09-09T13:13:42;92179.88;;;23.77;62.76
34506;BME280;20748;42.632;23.198;2022-09-09T13:16:25;92182.13;;;23.64;61.72
34506;BME280;20748;42.632;23.198;2022-09-09T13:18:59;92175.31;;;23.89;61.53
34506;BME280;20748;42.632;23.198;2022-09-09T13:21:34;92159.38;;;23.99;61.19
34506;BME280;20748;42.632;23.198;2022-09-09T13:24:24;92159.41;;;24.10;60.87
34506;BME280;20748;42.632;23.198;2022-09-09T13:27:00;92165.47;;;24.07;60.04
34506;BME280;20748;42.632;23.198;2022-09-09T13:29:33;92162.06;;;24.29;60.38
34506;BME280;20748;42.632;23.198;2022-09-09T13:32:16;92160.19;;;24.44;61.73
34506;BME280;20748;42.632;23.198;2022-09-09T13:34:51;92160.94;;;24.37;61.95
34506;BME280;20748;42.632;23.198;2022-09-09T13:37:28;92153.72;;;24.45;63.13
34506;BME280;20748;42.632;23.198;2022-09-09T13:40:04;92150.25;;;24.51;63.24
34506;BME280;20748;42.632;23.198;2022-09-09T13:42:40;92149.13;;;24.45;63.07
34506;BME280;20748;42.632;23.198;2022-09-09T13:45:16;92148.00;;;24.50;62.70
34506;BME280;20748;42.632;23.198;2022-09-09T13:47:52;92141.88;;;24.53;63.21
34506;BME280;20748;42.632;23.198;2022-09-09T13:50:28;92138.47;;;24.45;62.25
34506;BME280;20748;42.632;23.198;2022-09-09T13:53:00;92133.91;;;24.42;62.02
34506;BME280;20748;42.632;23.198;2022-09-09T13:55:33;92132.34;;;24.59;62.12
34506;BME280;20748;42.632;23.198;2022-09-09T13:58:05;92136.19;;;24.44;61.40